Terminal Aerodrome Forecast
Issued by NWS

Home | Current Version | Previous Version | Text Only | Print | Product List | Glossary On
Versions: 1 2 3 4 5 6 7 8 9 10 11 12 13 14 15 16 17 18
000
FTUS43 KEAX 190500
TAFSTJ
TAF
KSTJ 190520Z 1906/2006 11003KT 1/2SM FG VV002
      TEMPO 1910/1914 1SM -SHRA BR OVC008
     FM191400 33008KT P6SM -RA VCTS OVC040CB
     FM200300 32012KT P6SM OVC050=

USA.gov is the U.S. government's official web portal to all federal, state and local government web resources and services.